createdAt,value
2022-08-21T00:04:56.935Z,71.11
2022-08-21T00:10:19.698Z,70.76
2022-08-21T00:15:42.123Z,71.24
2022-08-21T00:21:03.864Z,70.70
2022-08-21T00:26:24.643Z,70.65
2022-08-21T00:31:45.690Z,71.08
2022-08-21T00:37:06.233Z,70.76
2022-08-21T00:42:29.172Z,70.54
2022-08-21T00:47:52.225Z,70.57
2022-08-21T00:53:14.384Z,71.01
2022-08-21T00:58:36.982Z,70.46
2022-08-21T01:03:58.689Z,70.59
2022-08-21T01:09:20.041Z,70.48
2022-08-21T01:14:43.850Z,70.65
2022-08-21T01:20:10.783Z,70.81
2022-08-21T01:25:33.370Z,70.93
2022-08-21T01:30:55.355Z,70.91
2022-08-21T01:36:16.409Z,70.97
2022-08-21T01:41:37.371Z,70.94
2022-08-21T01:47:01.064Z,71.07
2022-08-21T01:52:21.676Z,71.06
2022-08-21T01:57:42.526Z,70.97
2022-08-21T02:03:04.135Z,70.82
2022-08-21T02:08:25.216Z,70.68
2022-08-21T02:13:46.135Z,70.94
2022-08-21T02:19:07.863Z,71.03
2022-08-21T02:24:28.975Z,71.04
2022-08-21T02:29:49.595Z,70.83
2022-08-21T02:35:11.369Z,71.06
2022-08-21T02:40:35.982Z,71.04
2022-08-21T02:45:58.244Z,71.19
2022-08-21T02:51:21.041Z,71.09
2022-08-21T02:56:41.629Z,71.30
2022-08-21T03:02:02.749Z,71.33
2022-08-21T03:07:23.933Z,71.27
2022-08-21T03:12:44.715Z,71.24
2022-08-21T03:18:06.397Z,70.79
2022-08-21T03:23:27.182Z,71.46
2022-08-21T03:28:53.617Z,71.48
2022-08-21T03:34:15.064Z,71.52
2022-08-21T03:39:35.959Z,71.59
2022-08-21T03:44:56.689Z,71.69
2022-08-21T03:50:18.289Z,71.57
2022-08-21T03:55:38.849Z,71.37
2022-08-21T04:01:02.125Z,71.64
2022-08-21T04:06:22.963Z,71.87
2022-08-21T04:11:43.583Z,71.69
2022-08-21T04:17:04.768Z,71.64
2022-08-21T04:22:25.228Z,71.89
2022-08-21T04:27:46.770Z,72.12
2022-08-21T04:33:07.393Z,72.01
2022-08-21T04:38:33.133Z,72.05
2022-08-21T04:43:58.928Z,72.05
2022-08-21T04:49:19.647Z,71.96
2022-08-21T04:54:41.256Z,72.23
2022-08-21T05:00:03.112Z,72.21
2022-08-21T05:05:24.625Z,72.37
2022-08-21T05:10:46.197Z,72.33
2022-08-21T05:16:07.420Z,72.45
2022-08-21T05:21:28.165Z,72.70
2022-08-21T05:26:48.895Z,72.53
2022-08-21T05:32:12.095Z,72.60
2022-08-21T05:37:33.519Z,72.57
2022-08-21T05:42:55.978Z,72.39
2022-08-21T05:48:25.897Z,72.65
2022-08-21T05:53:46.913Z,72.30
2022-08-21T05:59:08.976Z,72.35
2022-08-21T06:04:30.351Z,72.85
2022-08-21T06:09:51.375Z,72.62
2022-08-21T06:15:12.505Z,72.63
2022-08-21T06:20:33.461Z,72.60
2022-08-21T06:25:54.796Z,72.25
2022-08-21T06:31:23.534Z,72.46
2022-08-21T06:36:45.027Z,72.63
2022-08-21T06:42:06.187Z,72.54
2022-08-21T06:47:32.442Z,72.41
2022-08-21T06:53:04.407Z,72.54
2022-08-21T06:58:25.368Z,72.49
2022-08-21T07:03:46.462Z,72.37
2022-08-21T07:09:07.595Z,72.30
2022-08-21T07:14:28.368Z,72.37
2022-08-21T07:19:49.166Z,72.04
2022-08-21T07:25:10.115Z,72.44
2022-08-21T07:30:31.538Z,72.24
2022-08-21T07:35:53.068Z,72.38
2022-08-21T07:41:23.124Z,72.32
2022-08-21T07:46:44.402Z,72.06
2022-08-21T07:52:05.416Z,72.78
2022-08-21T07:57:25.994Z,72.20
2022-08-21T08:02:51.014Z,72.18
2022-08-21T08:08:12.163Z,71.95
2022-08-21T08:13:33.412Z,72.09
2022-08-21T08:18:55.796Z,71.56
2022-08-21T08:24:19.340Z,71.56
2022-08-21T08:29:40.650Z,71.54
2022-08-21T08:35:01.786Z,71.57
2022-08-21T08:40:30.188Z,71.46
2022-08-21T08:45:54.520Z,71.21
2022-08-21T08:51:45.163Z,71.38
2022-08-21T08:57:11.354Z,71.35
2022-08-21T09:02:34.447Z,71.11
2022-08-21T09:07:55.349Z,71.37
2022-08-21T09:13:28.179Z,71.53
2022-08-21T09:19:26.502Z,70.97
2022-08-21T09:25:08.902Z,70.74
2022-08-21T09:30:33.633Z,70.54
2022-08-21T09:35:58.766Z,70.40
2022-08-21T09:41:28.389Z,70.00
2022-08-21T09:46:53.561Z,70.72
2022-08-21T09:52:22.809Z,69.95
2022-08-21T09:57:50.444Z,70.41
2022-08-21T10:03:19.634Z,70.39
2022-08-21T10:08:43.808Z,70.31
2022-08-21T10:14:28.198Z,69.59
2022-08-21T10:20:10.476Z,69.46
2022-08-21T10:25:56.345Z,70.51
2022-08-21T10:31:38.255Z,70.39
2022-08-21T10:37:16.497Z,69.58
2022-08-21T10:42:51.659Z,69.53
2022-08-21T10:48:23.796Z,69.15
2022-08-21T10:54:06.539Z,69.25
2022-08-21T10:59:48.375Z,68.62
2022-08-21T11:05:18.470Z,68.54
2022-08-21T11:11:15.734Z,68.55
2022-08-21T11:16:46.719Z,68.01
2022-08-21T11:22:16.429Z,68.07
2022-08-21T11:28:15.507Z,67.81
2022-08-21T11:34:22.786Z,68.09
2022-08-21T11:40:05.613Z,67.11
2022-08-21T11:45:38.873Z,67.06
2022-08-21T11:51:01.544Z,66.93
2022-08-21T11:56:31.934Z,66.70
2022-08-21T12:01:54.738Z,66.60
2022-08-21T12:07:31.168Z,66.41
2022-08-21T12:12:52.787Z,66.08
2022-08-21T12:18:24.856Z,66.22
2022-08-21T12:24:01.469Z,66.27
2022-08-21T12:29:32.541Z,66.37
2022-08-21T12:35:02.075Z,65.47
2022-08-21T12:40:29.195Z,65.58
2022-08-21T12:45:52.051Z,65.71
2022-08-21T12:51:14.204Z,65.55
2022-08-21T12:56:37.113Z,65.05
2022-08-21T13:02:01.002Z,65.53
2022-08-21T13:07:28.504Z,64.97
2022-08-21T13:12:50.049Z,64.98
2022-08-21T13:18:24.742Z,64.48
2022-08-21T13:23:45.537Z,64.10
2022-08-21T13:29:13.862Z,64.21
2022-08-21T13:34:38.031Z,63.29
2022-08-21T13:39:58.747Z,63.18
2022-08-21T13:45:25.861Z,63.36
2022-08-21T13:50:46.854Z,62.68
2022-08-21T13:56:08.449Z,62.94
2022-08-21T14:01:31.190Z,62.69
2022-08-21T14:06:52.809Z,62.05
2022-08-21T14:12:44.398Z,61.97
2022-08-21T14:18:20.678Z,62.10
2022-08-21T14:23:42.541Z,61.98
2022-08-21T14:29:09.580Z,61.82
2022-08-21T14:34:35.771Z,61.58
2022-08-21T14:39:56.842Z,61.74
2022-08-21T14:45:24.927Z,61.39
2022-08-21T14:50:48.490Z,60.84
2022-08-21T14:56:11.036Z,61.59
2022-08-21T15:01:35.567Z,60.96
2022-08-21T15:06:56.793Z,61.57
2022-08-21T15:12:17.554Z,61.07
2022-08-21T15:17:38.434Z,61.18
2022-08-21T15:23:00.319Z,61.00
2022-08-21T15:28:22.553Z,60.48
2022-08-21T15:33:45.034Z,60.48
2022-08-21T15:39:05.726Z,60.82
2022-08-21T15:44:29.049Z,60.37
2022-08-21T15:49:50.821Z,60.00
2022-08-21T15:55:12.412Z,60.04
2022-08-21T16:00:36.231Z,59.17
2022-08-21T16:05:58.177Z,59.25
2022-08-21T16:11:19.751Z,59.17
2022-08-21T16:16:40.844Z,59.40
2022-08-21T16:22:01.703Z,58.84
2022-08-21T16:27:22.917Z,58.54
2022-08-21T16:32:49.254Z,58.64
2022-08-21T16:38:10.266Z,58.39
2022-08-21T16:43:31.664Z,58.20
2022-08-21T16:48:53.216Z,58.09
2022-08-21T16:54:14.112Z,57.83
2022-08-21T16:59:35.469Z,57.47
2022-08-21T17:04:56.523Z,57.70
2022-08-21T17:10:19.163Z,57.58
2022-08-21T17:15:40.741Z,57.49
2022-08-21T17:21:01.820Z,56.94
2022-08-21T17:26:23.234Z,56.82
2022-08-21T17:31:44.870Z,56.65
2022-08-21T17:37:05.802Z,56.90
2022-08-21T17:42:27.366Z,57.24
2022-08-21T17:47:47.890Z,57.13
2022-08-21T17:53:09.989Z,56.87
2022-08-21T17:58:31.643Z,57.21
2022-08-21T18:03:53.129Z,57.29
2022-08-21T18:09:15.547Z,57.38
2022-08-21T18:14:37.587Z,57.52
2022-08-21T18:19:59.732Z,57.84
2022-08-21T18:25:20.602Z,58.21
2022-08-21T18:30:43.909Z,58.47
2022-08-21T18:36:05.231Z,58.65
2022-08-21T18:41:26.961Z,58.48
2022-08-21T18:46:55.197Z,58.51
2022-08-21T18:52:20.246Z,58.93
2022-08-21T18:57:42.304Z,58.93
2022-08-21T19:03:08.079Z,58.85
2022-08-21T19:08:28.847Z,59.25
2022-08-21T19:13:52.110Z,59.54
2022-08-21T19:19:13.241Z,59.27
2022-08-21T19:24:34.178Z,59.46
2022-08-21T19:29:54.768Z,59.57
2022-08-21T19:35:17.951Z,59.28
2022-08-21T19:40:39.466Z,59.34
2022-08-21T19:46:03.093Z,59.46
2022-08-21T19:51:25.547Z,59.34
2022-08-21T19:56:47.190Z,59.79
2022-08-21T20:02:09.756Z,59.96
2022-08-21T20:07:30.650Z,59.83
2022-08-21T20:12:52.872Z,59.92
2022-08-21T20:18:14.073Z,59.83
2022-08-21T20:23:34.878Z,60.06
2022-08-21T20:28:56.124Z,60.07
2022-08-21T20:34:17.554Z,60.08
2022-08-21T20:39:39.036Z,60.26
2022-08-21T20:45:08.351Z,60.41
2022-08-21T20:50:33.183Z,60.43
2022-08-21T20:56:00.433Z,60.43
2022-08-21T21:01:23.302Z,60.39
2022-08-21T21:06:44.253Z,60.42
2022-08-21T21:12:28.168Z,60.45
2022-08-21T21:18:01.976Z,60.66
2022-08-21T21:23:37.813Z,60.68
2022-08-21T21:29:10.642Z,60.70
2022-08-21T21:34:36.690Z,60.67
2022-08-21T21:40:13.609Z,60.69
2022-08-21T21:46:04.962Z,60.90
2022-08-21T21:51:45.723Z,61.12
2022-08-21T21:57:15.798Z,61.22
2022-08-21T22:02:59.240Z,61.29
2022-08-21T22:08:50.534Z,61.28
2022-08-21T22:14:15.165Z,61.26
2022-08-21T22:19:40.860Z,61.44
2022-08-21T22:25:12.537Z,61.26
2022-08-21T22:30:38.713Z,61.04
2022-08-21T22:36:15.029Z,61.60
2022-08-21T22:41:43.730Z,61.70
2022-08-21T22:47:06.093Z,61.75
2022-08-21T22:52:35.462Z,61.62
2022-08-21T22:58:03.225Z,61.65
2022-08-21T23:03:33.551Z,61.77
2022-08-21T23:08:54.768Z,61.81
2022-08-21T23:14:16.600Z,61.74
2022-08-21T23:19:52.747Z,61.79
2022-08-21T23:25:24.600Z,61.88
2022-08-21T23:30:55.300Z,61.69
2022-08-21T23:37:00.745Z,61.76
2022-08-21T23:42:30.927Z,61.95
2022-08-21T23:54:04.900Z,61.80
2022-08-21T23:59:58.316Z,61.97
